createdAt,value
2018-03-16T00:01:16.109Z,19.73
2018-03-16T00:03:45.203Z,20.30
2018-03-16T00:06:13.540Z,19.87
2018-03-16T00:08:42.047Z,21.07
2018-03-16T00:11:10.427Z,21.20
2018-03-16T00:13:38.751Z,20.30
2018-03-16T00:16:07.123Z,20.90
2018-03-16T00:18:35.473Z,19.90
2018-03-16T00:21:03.969Z,21.07
2018-03-16T00:23:32.549Z,22.40
2018-03-16T00:26:00.849Z,20.33
2018-03-16T00:28:31.248Z,21.53
2018-03-16T00:31:01.307Z,20.90
2018-03-16T00:33:29.885Z,20.77
2018-03-16T00:36:00.930Z,22.27
2018-03-16T00:38:29.283Z,21.20
2018-03-16T00:40:57.585Z,21.13
2018-03-16T00:43:26.897Z,21.80
2018-03-16T00:45:55.281Z,21.60
2018-03-16T00:48:23.633Z,21.90
2018-03-16T00:50:51.965Z,21.40
2018-03-16T00:53:20.280Z,22.97
2018-03-16T00:55:48.579Z,21.40
2018-03-16T00:58:17.126Z,22.57
2018-03-16T01:00:45.419Z,23.67
2018-03-16T01:03:13.741Z,22.83
2018-03-16T01:05:42.075Z,22.60
2018-03-16T01:08:10.393Z,21.67
2018-03-16T01:10:40.744Z,22.60
2018-03-16T01:13:09.126Z,23.23
2018-03-16T01:15:39.199Z,21.00
2018-03-16T01:18:09.341Z,23.07
2018-03-16T01:20:43.136Z,23.23
2018-03-16T01:23:13.235Z,21.23
2018-03-16T01:25:42.489Z,24.10
2018-03-16T01:28:10.783Z,22.40
2018-03-16T01:30:40.273Z,23.00
2018-03-16T01:33:08.665Z,22.47
2018-03-16T01:35:36.931Z,23.13
2018-03-16T01:38:05.283Z,24.43
2018-03-16T01:40:33.557Z,22.50
2018-03-16T01:43:01.996Z,22.77
2018-03-16T01:45:30.359Z,23.10
2018-03-16T01:47:58.678Z,22.57
2018-03-16T01:50:26.937Z,22.33
2018-03-16T01:53:20.101Z,20.20
2018-03-16T01:55:48.412Z,21.40
2018-03-16T01:58:16.719Z,21.60
2018-03-16T02:00:46.802Z,22.77
2018-03-16T02:03:15.125Z,20.93
2018-03-16T02:05:44.233Z,22.53
2018-03-16T02:08:12.771Z,21.80
2018-03-16T02:10:41.285Z,22.67
2018-03-16T02:13:09.562Z,21.57
2018-03-16T02:15:39.640Z,20.83
2018-03-16T02:18:08.087Z,21.00
2018-03-16T02:20:36.528Z,22.43
2018-03-16T02:23:07.438Z,21.73
2018-03-16T02:25:35.795Z,21.20
2018-03-16T02:28:04.137Z,22.00
2018-03-16T02:30:32.600Z,22.13
2018-03-16T02:33:01.108Z,20.10
2018-03-16T02:35:29.389Z,20.87
2018-03-16T02:37:57.716Z,20.40
2018-03-16T02:40:26.271Z,21.47
2018-03-16T02:42:54.734Z,22.23
2018-03-16T02:45:23.156Z,22.17
2018-03-16T02:47:51.620Z,21.07
2018-03-16T02:50:20.731Z,21.10
2018-03-16T02:52:49.174Z,21.57
2018-03-16T02:55:20.371Z,22.33
2018-03-16T02:57:51.680Z,20.43
2018-03-16T03:00:20.026Z,20.77
2018-03-16T03:02:49.914Z,20.87
2018-03-16T03:05:18.219Z,20.60
2018-03-16T03:07:48.710Z,20.50
2018-03-16T03:10:17.102Z,20.37
2018-03-16T03:12:45.483Z,20.43
2018-03-16T03:15:13.942Z,21.30
2018-03-16T03:17:42.228Z,19.70
2018-03-16T03:20:10.544Z,21.20
2018-03-16T03:22:39.048Z,20.87
2018-03-16T03:25:07.561Z,20.27
2018-03-16T03:27:35.881Z,19.67
2018-03-16T03:30:04.313Z,20.53
2018-03-16T03:32:32.608Z,19.90
2018-03-16T03:35:00.948Z,19.70
2018-03-16T03:37:30.019Z,19.57
2018-03-16T03:39:58.405Z,19.73
2018-03-16T03:42:26.892Z,20.93
2018-03-16T03:44:55.171Z,19.83
2018-03-16T03:47:23.513Z,20.47
2018-03-16T03:49:51.894Z,19.03
2018-03-16T03:52:20.356Z,19.27
2018-03-16T03:54:49.048Z,19.67
2018-03-16T03:57:17.364Z,19.57
2018-03-16T03:59:45.709Z,18.80
2018-03-16T04:02:16.738Z,19.17
2018-03-16T04:04:45.190Z,19.23
2018-03-16T04:07:13.513Z,18.50
2018-03-16T04:09:41.874Z,17.83
2018-03-16T04:12:12.186Z,18.77
2018-03-16T04:14:42.310Z,19.20
2018-03-16T04:17:12.692Z,18.60
2018-03-16T04:19:45.139Z,18.83
2018-03-16T04:22:13.650Z,17.43
2018-03-16T04:24:42.062Z,18.83
2018-03-16T04:27:10.459Z,18.80
2018-03-16T04:29:39.656Z,18.67
2018-03-16T04:32:08.144Z,20.17
2018-03-16T04:34:37.228Z,19.23
2018-03-16T04:37:05.708Z,19.07
2018-03-16T04:39:34.172Z,17.97
2018-03-16T04:42:02.484Z,17.97
2018-03-16T04:44:30.803Z,18.70
2018-03-16T04:46:59.177Z,17.27
2018-03-16T04:49:27.788Z,18.30
2018-03-16T04:51:56.085Z,18.97
2018-03-16T04:54:24.906Z,19.40
2018-03-16T04:56:56.174Z,17.90
2018-03-16T04:59:24.624Z,18.70
2018-03-16T05:01:53.147Z,18.50
2018-03-16T05:04:21.475Z,17.83
2018-03-16T05:06:49.802Z,18.20
2018-03-16T05:09:18.076Z,17.70
2018-03-16T05:11:46.625Z,17.73
2018-03-16T05:14:15.243Z,17.73
2018-03-16T05:16:43.575Z,18.50
2018-03-16T05:19:11.853Z,18.00
2018-03-16T05:21:41.316Z,17.23
2018-03-16T05:24:09.755Z,16.83
2018-03-16T05:26:38.033Z,16.80
2018-03-16T05:29:07.265Z,18.07
2018-03-16T05:31:35.701Z,16.77
2018-03-16T05:34:04.259Z,17.50
2018-03-16T05:36:32.623Z,18.10
2018-03-16T05:39:01.346Z,17.53
2018-03-16T05:41:29.804Z,16.20
2018-03-16T05:43:59.354Z,16.90
2018-03-16T05:46:29.336Z,17.07
2018-03-16T05:48:57.687Z,17.77
2018-03-16T05:51:26.868Z,16.50
2018-03-16T05:53:55.456Z,18.07
2018-03-16T05:56:23.803Z,17.90
2018-03-16T05:58:52.166Z,18.23
2018-03-16T06:01:20.576Z,19.93
2018-03-16T06:03:49.082Z,19.33
2018-03-16T06:06:17.340Z,19.07
2018-03-16T06:08:45.767Z,20.30
2018-03-16T06:11:15.824Z,18.00
2018-03-16T06:13:46.791Z,18.07
2018-03-16T06:16:15.101Z,17.60
2018-03-16T06:18:47.643Z,17.10
2018-03-16T06:21:15.933Z,17.47
2018-03-16T06:23:44.371Z,15.83
2018-03-16T06:26:12.735Z,16.27
2018-03-16T06:28:42.776Z,15.97
2018-03-16T06:31:11.188Z,16.47
2018-03-16T06:33:39.665Z,17.20
2018-03-16T06:36:08.047Z,18.30
2018-03-16T06:38:37.025Z,18.20
2018-03-16T06:41:05.435Z,17.30
2018-03-16T06:43:33.893Z,17.60
2018-03-16T06:46:05.683Z,16.50
2018-03-16T06:48:34.127Z,15.60
2018-03-16T06:51:03.419Z,16.60
2018-03-16T06:53:31.707Z,14.97
2018-03-16T06:56:00.085Z,14.70
2018-03-16T06:58:28.536Z,15.53
2018-03-16T07:00:58.645Z,15.33
2018-03-16T07:03:27.333Z,14.27
2018-03-16T07:05:55.728Z,13.13
2018-03-16T07:08:24.323Z,14.57
2018-03-16T07:10:52.644Z,14.37
2018-03-16T07:13:22.884Z,14.10
2018-03-16T07:15:52.197Z,12.97
2018-03-16T07:18:20.924Z,12.33
2018-03-16T07:20:49.235Z,11.40
2018-03-16T07:23:17.700Z,11.87
2018-03-16T07:25:46.267Z,11.87
2018-03-16T07:28:14.843Z,12.03
2018-03-16T07:30:43.391Z,11.00
2018-03-16T07:33:11.732Z,10.90
2018-03-16T07:35:40.301Z,10.80
2018-03-16T07:38:10.884Z,10.27
2018-03-16T07:40:39.373Z,10.47
2018-03-16T07:43:07.686Z,9.70
2018-03-16T07:45:41.566Z,8.67
2018-03-16T07:48:09.928Z,10.17
2018-03-16T07:50:38.379Z,10.70
2018-03-16T07:53:06.717Z,8.93
2018-03-16T07:55:35.095Z,8.63
2018-03-16T07:58:03.575Z,8.80
2018-03-16T08:00:31.830Z,7.80
2018-03-16T08:03:00.197Z,7.40
2018-03-16T08:05:28.489Z,7.90
2018-03-16T08:07:56.891Z,7.30
2018-03-16T08:10:26.963Z,7.60
2018-03-16T08:12:55.399Z,7.67
2018-03-16T08:15:23.995Z,8.57
2018-03-16T08:17:52.439Z,8.03
2018-03-16T08:20:20.939Z,8.00
2018-03-16T08:22:50.076Z,7.17
2018-03-16T08:25:18.447Z,7.83
2018-03-16T08:27:48.888Z,7.73
2018-03-16T08:30:17.344Z,7.10
2018-03-16T08:32:45.817Z,6.50
2018-03-16T08:35:16.025Z,7.10
2018-03-16T08:37:48.333Z,6.60
2018-03-16T08:40:16.757Z,6.80
2018-03-16T08:42:45.171Z,6.33
2018-03-16T08:45:13.442Z,6.47
2018-03-16T08:47:41.865Z,6.00
2018-03-16T08:50:10.412Z,5.27
2018-03-16T08:52:38.703Z,5.10
2018-03-16T08:55:07.040Z,4.77
2018-03-16T08:57:35.415Z,4.23
2018-03-16T09:00:03.763Z,4.53
2018-03-16T09:02:32.330Z,5.03
2018-03-16T09:05:00.677Z,4.40
2018-03-16T09:07:29.741Z,4.30
2018-03-16T09:09:59.152Z,4.90
2018-03-16T09:12:27.506Z,5.50
2018-03-16T09:14:56.026Z,4.53
2018-03-16T09:17:25.977Z,5.10
2018-03-16T09:19:54.529Z,4.70
2018-03-16T09:22:22.904Z,4.77
2018-03-16T09:24:52.979Z,4.23
2018-03-16T09:27:22.988Z,4.37
2018-03-16T09:29:51.347Z,4.20
2018-03-16T09:32:19.772Z,3.80
2018-03-16T09:34:48.318Z,3.80
2018-03-16T09:37:16.696Z,3.23
2018-03-16T09:39:44.980Z,3.83
2018-03-16T09:42:13.445Z,3.90
2018-03-16T09:44:41.789Z,3.33
2018-03-16T09:47:11.870Z,3.73
2018-03-16T09:49:40.324Z,3.50
2018-03-16T09:52:10.268Z,2.80
2018-03-16T09:54:51.228Z,2.97
2018-03-16T09:57:19.659Z,3.37
2018-03-16T09:59:50.398Z,3.33
2018-03-16T10:02:19.038Z,3.03
2018-03-16T10:04:49.420Z,3.50
2018-03-16T10:07:17.936Z,2.93
2018-03-16T10:09:47.024Z,3.40
2018-03-16T10:12:15.360Z,3.60
2018-03-16T10:14:45.514Z,3.20
2018-03-16T10:17:13.936Z,3.50
2018-03-16T10:19:42.313Z,3.37
2018-03-16T10:22:10.617Z,2.30
2018-03-16T10:24:38.934Z,2.30
2018-03-16T10:27:07.518Z,1.97
2018-03-16T10:29:35.932Z,1.60
2018-03-16T10:32:04.540Z,1.90
2018-03-16T10:34:32.874Z,2.07
2018-03-16T10:37:01.741Z,1.97
2018-03-16T10:39:30.065Z,1.90
2018-03-16T10:41:59.458Z,1.80
2018-03-16T10:44:27.796Z,2.00
2018-03-16T10:46:56.078Z,1.67
2018-03-16T10:49:24.482Z,2.30
2018-03-16T10:51:52.921Z,2.00
2018-03-16T10:54:22.188Z,2.00
2018-03-16T10:56:50.815Z,2.03
2018-03-16T10:59:19.131Z,2.00
2018-03-16T11:01:52.990Z,2.40
2018-03-16T11:07:21.992Z,1.60
2018-03-16T11:09:50.500Z,1.80
2018-03-16T11:12:18.831Z,1.70
2018-03-16T11:14:47.152Z,1.87
2018-03-16T11:17:15.563Z,1.30
2018-03-16T11:19:43.863Z,1.70
2018-03-16T11:22:12.343Z,1.70
2018-03-16T11:24:40.627Z,1.70
2018-03-16T11:27:08.994Z,1.40
2018-03-16T11:29:38.860Z,1.50
2018-03-16T11:32:07.330Z,1.30
2018-03-16T11:34:36.859Z,1.63
2018-03-16T11:37:05.172Z,1.83
2018-03-16T11:39:33.564Z,1.37
2018-03-16T11:42:02.503Z,1.57
2018-03-16T11:44:30.856Z,1.93
2018-03-16T11:47:01.729Z,1.80
2018-03-16T11:49:30.142Z,1.83
2018-03-16T11:51:58.550Z,1.80
2018-03-16T11:54:27.039Z,1.53
2018-03-16T11:56:55.469Z,1.80
2018-03-16T11:59:25.558Z,1.47
2018-03-16T12:01:53.895Z,1.70
2018-03-16T12:04:24.928Z,1.40
2018-03-16T12:06:57.344Z,1.50
2018-03-16T12:09:27.531Z,1.90
2018-03-16T12:11:55.991Z,1.60
2018-03-16T12:14:24.389Z,1.67
2018-03-16T12:16:52.716Z,2.37
2018-03-16T12:19:21.075Z,2.07
2018-03-16T12:21:49.521Z,2.00
2018-03-16T12:24:17.969Z,1.57
2018-03-16T12:26:46.826Z,1.63
2018-03-16T12:29:15.167Z,2.00
2018-03-16T12:31:43.650Z,2.00
2018-03-16T12:34:11.963Z,1.87
2018-03-16T12:36:40.439Z,1.60
2018-03-16T12:39:10.155Z,1.60
2018-03-16T12:41:38.546Z,1.60
2018-03-16T12:44:06.968Z,1.57
2018-03-16T12:46:35.506Z,1.60
2018-03-16T12:49:03.812Z,1.80
2018-03-16T12:51:32.168Z,1.77
2018-03-16T12:54:00.610Z,1.80
2018-03-16T12:56:29.065Z,1.70
2018-03-16T12:58:57.396Z,1.83
2018-03-16T13:01:25.734Z,2.20
2018-03-16T13:03:54.791Z,1.80
2018-03-16T13:06:23.148Z,1.80
2018-03-16T13:08:51.652Z,1.60
2018-03-16T13:11:20.269Z,2.00
2018-03-16T13:13:48.657Z,2.30
2018-03-16T13:16:16.975Z,2.30
2018-03-16T13:18:45.310Z,1.90
2018-03-16T13:21:13.637Z,2.43
2018-03-16T13:23:41.987Z,2.30
2018-03-16T13:26:10.484Z,2.40
2018-03-16T13:28:38.806Z,2.80
2018-03-16T13:31:07.109Z,2.73
2018-03-16T13:33:35.587Z,2.77
2018-03-16T13:36:04.020Z,3.20
2018-03-16T13:38:32.407Z,3.40
2018-03-16T13:41:00.829Z,3.30
2018-03-16T13:43:29.131Z,3.10
2018-03-16T13:46:00.103Z,3.00
2018-03-16T13:48:28.494Z,2.60
2018-03-16T13:50:57.038Z,3.27
2018-03-16T13:53:25.382Z,2.30
2018-03-16T13:55:55.354Z,2.30
2018-03-16T13:58:23.929Z,2.10
2018-03-16T14:00:52.392Z,2.37
2018-03-16T14:03:20.733Z,2.33
2018-03-16T14:05:49.186Z,1.93
2018-03-16T14:08:18.330Z,2.37
2018-03-16T14:10:48.347Z,2.30
2018-03-16T14:13:17.089Z,2.37
2018-03-16T14:15:45.453Z,2.30
2018-03-16T14:18:13.751Z,2.10
2018-03-16T14:20:42.086Z,3.23
2018-03-16T14:23:10.668Z,2.80
2018-03-16T14:25:39.292Z,2.67
2018-03-16T14:28:09.401Z,3.33
2018-03-16T14:30:39.358Z,3.73
2018-03-16T14:33:07.697Z,4.00
2018-03-16T14:35:36.157Z,3.07
2018-03-16T14:38:06.221Z,2.20
2018-03-16T14:40:34.805Z,2.27
2018-03-16T14:43:04.079Z,2.40
2018-03-16T14:45:32.528Z,2.80
2018-03-16T14:48:02.732Z,3.30
2018-03-16T14:50:31.197Z,2.73
2018-03-16T14:53:00.494Z,2.87
2018-03-16T14:55:28.846Z,2.60
2018-03-16T14:57:57.377Z,3.07
2018-03-16T15:00:25.800Z,2.53
2018-03-16T15:02:54.121Z,2.10
2018-03-16T15:05:22.469Z,2.60
2018-03-16T15:07:50.907Z,2.20
2018-03-16T15:10:19.237Z,1.70
2018-03-16T15:12:47.654Z,2.00
2018-03-16T15:15:16.185Z,2.20
2018-03-16T15:17:44.555Z,1.67
2018-03-16T15:20:13.083Z,2.33
2018-03-16T15:22:41.508Z,2.43
2018-03-16T15:25:11.662Z,2.43
2018-03-16T15:27:40.125Z,2.27
2018-03-16T15:30:08.410Z,2.23
2018-03-16T15:32:36.761Z,2.50
2018-03-16T15:35:05.057Z,2.10
2018-03-16T15:37:35.557Z,2.10
2018-03-16T15:40:03.960Z,3.23
2018-03-16T15:42:32.528Z,2.83
2018-03-16T15:45:00.926Z,1.83
2018-03-16T15:47:29.243Z,2.30
2018-03-16T15:49:57.768Z,2.23
2018-03-16T15:52:26.390Z,2.23
2018-03-16T15:54:54.827Z,1.50
2018-03-16T15:57:23.229Z,1.67
2018-03-16T15:59:53.263Z,1.67
2018-03-16T16:02:21.652Z,1.70
2018-03-16T16:04:50.108Z,2.00
2018-03-16T16:07:18.465Z,1.67
2018-03-16T16:09:46.805Z,1.63
2018-03-16T16:12:15.394Z,1.70
2018-03-16T16:14:45.449Z,1.67
2018-03-16T16:17:13.845Z,1.80
2018-03-16T16:19:42.200Z,2.07
2018-03-16T16:22:10.621Z,1.47
2018-03-16T16:24:39.104Z,1.73
2018-03-16T16:27:07.481Z,2.20
2018-03-16T16:29:36.014Z,1.70
2018-03-16T16:32:04.498Z,1.90
2018-03-16T16:34:34.571Z,1.67
2018-03-16T16:37:03.613Z,1.90
2018-03-16T16:39:31.968Z,1.70
2018-03-16T16:42:01.512Z,2.27
2018-03-16T16:44:30.641Z,1.63
2018-03-16T16:46:58.972Z,1.73
2018-03-16T16:49:27.364Z,2.30
2018-03-16T16:51:55.724Z,1.60
2018-03-16T16:54:24.187Z,1.60
2018-03-16T16:56:52.734Z,1.80
2018-03-16T16:59:21.016Z,1.60
2018-03-16T17:01:49.488Z,2.23
2018-03-16T17:04:20.267Z,4.10
2018-03-16T17:06:53.930Z,5.70
2018-03-16T17:09:23.908Z,4.90
2018-03-16T17:11:52.731Z,5.50
2018-03-16T17:14:23.559Z,5.17
2018-03-16T17:16:55.147Z,3.80
2018-03-16T17:19:23.538Z,3.30
2018-03-16T17:21:52.737Z,2.37
2018-03-16T17:24:21.103Z,2.70
2018-03-16T17:26:49.674Z,2.97
2018-03-16T17:29:18.058Z,3.10
2018-03-16T17:31:46.555Z,3.30
2018-03-16T17:34:17.098Z,2.90
2018-03-16T17:36:45.789Z,3.13
2018-03-16T17:39:16.152Z,3.00
2018-03-16T17:41:46.972Z,3.50
2018-03-16T17:44:16.113Z,3.13
2018-03-16T17:46:44.617Z,2.63
2018-03-16T17:49:15.863Z,2.70
2018-03-16T17:51:47.736Z,3.27
2018-03-16T17:54:16.071Z,3.03
2018-03-16T17:56:44.449Z,3.13
2018-03-16T17:59:12.980Z,3.53
2018-03-16T18:01:41.447Z,3.03
2018-03-16T18:04:10.840Z,2.80
2018-03-16T18:06:41.311Z,3.37
2018-03-16T18:09:09.747Z,3.33
2018-03-16T18:11:41.062Z,4.30
2018-03-16T18:14:09.757Z,3.90
2018-03-16T18:16:38.500Z,4.40
2018-03-16T18:19:06.851Z,3.80
2018-03-16T18:21:35.180Z,2.30
2018-03-16T18:24:05.291Z,2.23
2018-03-16T18:26:33.831Z,1.93
2018-03-16T18:29:02.224Z,2.20
2018-03-16T18:31:32.180Z,2.77
2018-03-16T18:34:00.576Z,2.20
2018-03-16T18:36:29.077Z,2.58
2018-03-16T18:38:58.162Z,2.90
2018-03-16T18:41:28.656Z,2.90
2018-03-16T18:43:57.021Z,2.40
2018-03-16T18:46:25.687Z,2.60
2018-03-16T18:48:54.173Z,2.77
2018-03-16T18:51:24.182Z,2.50
2018-03-16T18:53:52.695Z,2.72
2018-03-16T18:56:21.187Z,2.93
2018-03-16T18:58:49.695Z,3.23
2018-03-16T19:01:18.033Z,3.63
2018-03-16T19:03:46.550Z,3.00
2018-03-16T19:06:14.850Z,3.50
2018-03-16T19:08:43.274Z,2.73
2018-03-16T19:11:11.572Z,2.90
2018-03-16T19:13:41.545Z,3.33
2018-03-16T19:16:10.116Z,2.50
2018-03-16T19:18:40.026Z,2.90
2018-03-16T19:21:10.234Z,3.40
2018-03-16T19:23:38.576Z,3.60
2018-03-16T19:26:07.127Z,4.00
2018-03-16T19:28:35.603Z,3.67
2018-03-16T19:31:04.166Z,3.87
2018-03-16T19:33:32.538Z,4.40
2018-03-16T19:36:00.896Z,3.70
2018-03-16T19:38:29.242Z,3.60
2018-03-16T19:40:57.779Z,4.73
2018-03-16T19:43:26.081Z,4.37
2018-03-16T19:45:54.515Z,4.30
2018-03-16T19:48:24.621Z,4.30
2018-03-16T19:50:53.188Z,4.10
2018-03-16T19:53:21.555Z,4.60
2018-03-16T19:55:50.957Z,5.80
2018-03-16T19:58:21.272Z,5.20
2018-03-16T20:00:51.306Z,5.47
2018-03-16T20:03:19.670Z,6.40
2018-03-16T20:05:49.269Z,6.50
2018-03-16T20:08:19.693Z,5.40
2018-03-16T20:10:48.990Z,6.37
2018-03-16T20:13:17.745Z,9.40
2018-03-16T20:15:46.374Z,5.87
2018-03-16T20:18:14.694Z,5.80
2018-03-16T20:20:44.870Z,4.83
2018-03-16T20:23:15.057Z,5.37
2018-03-16T20:25:45.199Z,5.83
2018-03-16T20:28:13.660Z,6.10
2018-03-16T20:30:41.982Z,7.30
2018-03-16T20:33:10.439Z,6.47
2018-03-16T20:35:38.792Z,8.40
2018-03-16T20:38:07.306Z,8.10
2018-03-16T20:40:38.460Z,9.97
2018-03-16T20:43:06.884Z,10.60
2018-03-16T20:45:35.496Z,11.30
2018-03-16T20:48:04.279Z,12.60
2018-03-16T20:50:32.705Z,11.53
2018-03-16T20:53:02.613Z,11.80
2018-03-16T20:55:31.533Z,12.60
2018-03-16T20:57:59.915Z,12.40
2018-03-16T21:00:28.313Z,13.57
2018-03-16T21:02:56.705Z,11.43
2018-03-16T21:05:26.025Z,11.37
2018-03-16T21:07:54.390Z,11.20
2018-03-16T21:10:22.962Z,12.00
2018-03-16T21:12:51.503Z,12.63
2018-03-16T21:15:19.967Z,11.73
2018-03-16T21:17:48.303Z,11.03
2018-03-16T21:20:16.595Z,9.77
2018-03-16T21:22:47.577Z,9.90
2018-03-16T21:25:16.092Z,9.00
2018-03-16T21:27:44.460Z,6.40
2018-03-16T21:30:12.746Z,5.20
2018-03-16T21:32:41.169Z,5.00
2018-03-16T21:35:11.397Z,5.33
2018-03-16T21:37:39.744Z,5.73
2018-03-16T21:40:10.026Z,6.60
2018-03-16T21:42:40.839Z,6.10
2018-03-16T21:45:09.310Z,5.67
2018-03-16T21:47:37.845Z,5.37
2018-03-16T21:50:06.286Z,4.57
2018-03-16T21:52:34.674Z,5.20
2018-03-16T21:55:02.996Z,5.03
2018-03-16T21:57:31.550Z,5.77
2018-03-16T21:59:59.946Z,5.80
2018-03-16T22:02:28.263Z,5.00
2018-03-16T22:04:59.450Z,8.97
2018-03-16T22:07:28.047Z,9.33
2018-03-16T22:09:56.382Z,8.57
2018-03-16T22:12:25.653Z,7.20
2018-03-16T22:14:53.993Z,7.17
2018-03-16T22:17:24.905Z,8.10
2018-03-16T22:19:53.725Z,7.43
2018-03-16T22:22:24.704Z,8.03
2018-03-16T22:24:53.380Z,15.30
2018-03-16T22:27:23.554Z,16.60
2018-03-16T22:29:52.046Z,14.37
2018-03-16T22:32:20.427Z,14.17
2018-03-16T22:34:48.970Z,13.20
2018-03-16T22:37:18.072Z,13.47
2018-03-16T22:39:46.387Z,12.93
2018-03-16T22:42:14.706Z,11.63
2018-03-16T22:44:43.078Z,12.20
2018-03-16T22:47:13.300Z,12.07
2018-03-16T22:49:43.948Z,11.87
2018-03-16T22:52:12.383Z,11.50
2018-03-16T22:54:41.856Z,11.77
2018-03-16T22:57:10.887Z,12.03
2018-03-16T22:59:39.290Z,12.00
2018-03-16T23:02:07.781Z,12.33
2018-03-16T23:04:36.258Z,11.30
2018-03-16T23:07:04.555Z,11.40
2018-03-16T23:09:32.914Z,12.30
2018-03-16T23:12:01.303Z,12.50
2018-03-16T23:14:29.583Z,12.90
2018-03-16T23:16:58.136Z,12.50
2018-03-16T23:19:27.219Z,12.67
2018-03-16T23:21:55.704Z,9.80
2018-03-16T23:24:24.145Z,10.70
2018-03-16T23:26:52.564Z,10.83
2018-03-16T23:29:23.242Z,9.27
2018-03-16T23:31:51.578Z,8.10
2018-03-16T23:34:19.962Z,7.50
2018-03-16T23:36:50.909Z,8.50
2018-03-16T23:39:19.222Z,6.83
2018-03-16T23:41:48.492Z,7.07
2018-03-16T23:44:16.843Z,6.73
2018-03-16T23:46:45.340Z,6.10
2018-03-16T23:49:13.815Z,5.83
2018-03-16T23:51:42.328Z,5.43
2018-03-16T23:54:10.768Z,4.80
2018-03-16T23:56:39.094Z,5.10
2018-03-16T23:59:07.456Z,4.63
